Time;durP1;ratioP1;P1;durP2;ratioP2;P2;SDS_P1;SDS_P2;PMS_P1;PMS_P2;Temp;Humidity;BMP_temperature;BMP_pressure;BME280_temperature;BME280_humidity;BME280_pressure;Samples;Min_cycle;Max_cycle;Signal;HPM_P1;HPM_P2
2022/04/11 00:00:49;;;;;;;13.40;6.32;;;;;;;;;;5023718;28;20045;-72
2022/04/11 00:03:15;;;;;;;10.82;6.40;;;;;;;;;;5010527;28;20121;-75
2022/04/11 00:05:44;;;;;;;8.95;6.18;;;;;;;;;;5007540;28;20030;-72
2022/04/11 00:08:10;;;;;;;7.60;5.85;;;;;;;;;;5000303;28;20482;-75
2022/04/11 00:10:36;;;;;;;8.32;5.80;;;;;;;;;;4985948;28;20091;-73
2022/04/11 00:13:06;;;;;;;7.70;5.45;;;;;;;;;;5005301;28;20033;-74
2022/04/11 00:15:38;;;;;;;8.38;5.75;;;;;;;;;;5009841;28;20034;-76
2022/04/11 00:18:04;;;;;;;10.43;6.03;;;;;;;;;;5008226;28;20403;-75
2022/04/11 00:20:30;;;;;;;7.90;5.85;;;;;;;;;;5008624;28;20455;-71
2022/04/11 00:22:56;;;;;;;8.63;6.18;;;;;;;;;;5007161;28;20034;-77
2022/04/11 00:25:23;;;;;;;9.25;6.75;;;;;;;;;;5008283;28;20022;-75
2022/04/11 00:27:49;;;;;;;9.30;5.82;;;;;;;;;;5010733;28;20049;-75
2022/04/11 00:30:15;;;;;;;8.65;6.10;;;;;;;;;;5014944;28;20091;-73
2022/04/11 00:32:43;;;;;;;8.38;5.68;;;;;;;;;;5005532;28;20038;-72
2022/04/11 00:35:10;;;;;;;8.85;6.18;;;;;;;;;;5011030;28;20097;-74
2022/04/11 00:37:37;;;;;;;8.05;5.88;;;;;;;;;;5007613;28;20376;-73
2022/04/11 00:40:04;;;;;;;9.15;5.93;;;;;;;;;;5015232;28;20475;-77
2022/04/11 00:42:31;;;;;;;8.52;5.85;;;;;;;;;;5016261;28;20406;-75
2022/04/11 00:44:57;;;;;;;8.35;6.00;;;;;;;;;;5004804;28;20037;-74
2022/04/11 00:47:23;;;;;;;8.25;5.57;;;;;;;;;;5007796;28;20033;-77
2022/04/11 00:49:53;;;;;;;7.95;5.68;;;;;;;;;;5009090;28;20073;-74
2022/04/11 00:52:21;;;;;;;7.65;5.05;;;;;;;;;;5013896;28;20037;-71
2022/04/11 00:54:47;;;;;;;10.15;5.43;;;;;;;;;;4998344;28;20041;-73
2022/04/11 00:57:15;;;;;;;5.93;4.95;;;;;;;;;;5013105;28;20183;-74
2022/04/11 00:59:41;;;;;;;7.72;5.28;;;;;;;;;;5013082;28;20033;-75
2022/04/11 01:02:07;;;;;;;10.75;5.50;;;;;;;;;;5017573;28;20415;-74
2022/04/11 01:04:34;;;;;;;8.70;5.60;;;;;;;;;;5009919;28;20022;-75
2022/04/11 01:07:00;;;;;;;9.20;5.40;;;;;;;;;;5011361;28;20030;-73
2022/04/11 01:09:27;;;;;;;9.38;6.00;;;;;;;;;;5008468;28;20099;-73
2022/04/11 01:11:53;;;;;;;7.50;5.43;;;;;;;;;;5013929;28;20137;-74
2022/04/11 01:14:20;;;;;;;6.75;5.25;;;;;;;;;;5011064;28;20022;-76
2022/04/11 01:16:50;;;;;;;7.25;5.20;;;;;;;;;;5011398;28;20042;-76
2022/04/11 01:19:16;;;;;;;5.90;4.82;;;;;;;;;;5013151;28;20022;-75
2022/04/11 01:21:42;;;;;;;7.28;4.88;;;;;;;;;;5016390;28;20034;-77
2022/04/11 01:24:08;;;;;;;7.47;5.80;;;;;;;;;;5017419;28;20037;-77
2022/04/11 01:26:36;;;;;;;9.93;5.28;;;;;;;;;;5021744;28;20029;-76
2022/04/11 01:29:04;;;;;;;8.57;5.55;;;;;;;;;;5015294;28;20038;-76
2022/04/11 01:31:30;;;;;;;8.57;5.00;;;;;;;;;;5016849;28;20037;-77
2022/04/11 01:33:56;;;;;;;6.40;4.50;;;;;;;;;;5021843;28;20029;-77
2022/04/11 01:36:23;;;;;;;8.45;4.95;;;;;;;;;;5024783;28;20025;-77
2022/04/11 01:38:49;;;;;;;6.68;5.00;;;;;;;;;;5017025;28;20017;-76
2022/04/11 01:41:15;;;;;;;10.18;4.57;;;;;;;;;;5013249;28;20030;-78
2022/04/11 01:43:41;;;;;;;6.93;4.72;;;;;;;;;;5010523;28;20038;-73
2022/04/11 01:46:07;;;;;;;6.88;4.53;;;;;;;;;;5017139;28;20464;-76
2022/04/11 01:48:33;;;;;;;5.38;4.32;;;;;;;;;;5009525;28;20030;-77
2022/04/11 01:50:59;;;;;;;7.03;4.55;;;;;;;;;;5012402;28;20077;-71
2022/04/11 01:53:25;;;;;;;5.80;4.20;;;;;;;;;;5006747;28;20026;-74
2022/04/11 01:55:51;;;;;;;6.03;4.50;;;;;;;;;;5013692;28;20037;-77
2022/04/11 01:58:17;;;;;;;7.20;4.35;;;;;;;;;;5014188;28;20040;-77
2022/04/11 02:00:43;;;;;;;7.88;4.45;;;;;;;;;;5007373;28;20034;-74
2022/04/11 02:03:10;;;;;;;6.22;4.22;;;;;;;;;;5011179;28;20408;-77
2022/04/11 02:05:36;;;;;;;8.32;4.40;;;;;;;;;;5014429;28;20022;-77
2022/04/11 02:08:05;;;;;;;5.20;4.28;;;;;;;;;;5017524;28;20084;-77
2022/04/11 02:10:31;;;;;;;7.28;3.90;;;;;;;;;;5013078;28;20086;-77
2022/04/11 02:12:58;;;;;;;4.97;3.75;;;;;;;;;;5013509;28;20042;-77
2022/04/11 02:15:24;;;;;;;4.78;3.85;;;;;;;;;;5007310;28;20396;-75
2022/04/11 02:17:50;;;;;;;7.22;4.43;;;;;;;;;;5000942;28;20172;-76
2022/04/11 02:20:16;;;;;;;6.10;4.25;;;;;;;;;;5013463;28;20106;-78
2022/04/11 02:22:46;;;;;;;7.28;4.43;;;;;;;;;;5011291;28;20125;-71
2022/04/11 02:25:12;;;;;;;6.35;4.20;;;;;;;;;;5009074;28;20026;-77
2022/04/11 02:27:38;;;;;;;5.38;4.38;;;;;;;;;;5017709;28;20026;-77
2022/04/11 02:30:05;;;;;;;6.82;4.60;;;;;;;;;;5014426;28;20030;-77
2022/04/11 02:32:31;;;;;;;6.82;4.30;;;;;;;;;;5013585;28;21732;-78
2022/04/11 02:34:57;;;;;;;6.80;4.75;;;;;;;;;;5012736;28;20471;-77
2022/04/11 02:37:26;;;;;;;8.82;4.45;;;;;;;;;;5011289;28;20072;-77
2022/04/11 02:39:53;;;;;;;7.20;4.35;;;;;;;;;;5006029;28;20026;-72
2022/04/11 02:42:22;;;;;;;7.82;4.65;;;;;;;;;;5011238;28;20053;-77
2022/04/11 02:44:49;;;;;;;7.72;4.32;;;;;;;;;;5010469;28;20029;-76
2022/04/11 02:47:15;;;;;;;5.20;3.70;;;;;;;;;;5005399;28;20116;-77
2022/04/11 02:49:41;;;;;;;6.32;4.15;;;;;;;;;;5016779;28;20021;-77
2022/04/11 02:52:07;;;;;;;7.65;4.70;;;;;;;;;;5013919;28;20046;-77
2022/04/11 02:54:33;;;;;;;7.20;4.55;;;;;;;;;;5014350;28;20028;-77
2022/04/11 02:56:59;;;;;;;6.63;4.75;;;;;;;;;;5007063;28;20022;-77
2022/04/11 02:59:25;;;;;;;8.88;5.03;;;;;;;;;;5017430;28;20029;-74
2022/04/11 03:01:51;;;;;;;6.97;4.35;;;;;;;;;;5007574;28;20105;-76
2022/04/11 03:04:17;;;;;;;6.82;4.60;;;;;;;;;;5016679;28;20034;-77
2022/04/11 03:06:43;;;;;;;11.32;4.47;;;;;;;;;;5011449;28;20026;-78
2022/04/11 03:09:09;;;;;;;7.28;4.43;;;;;;;;;;5006020;28;20025;-71
2022/04/11 03:11:35;;;;;;;7.55;4.60;;;;;;;;;;5002676;28;20126;-72
2022/04/11 03:14:02;;;;;;;7.28;4.40;;;;;;;;;;5009856;28;20018;-78
2022/04/11 03:16:28;;;;;;;6.82;4.45;;;;;;;;;;5007015;28;20502;-78
2022/04/11 03:18:54;;;;;;;9.73;4.93;;;;;;;;;;5020640;28;20037;-72
2022/04/11 03:21:20;;;;;;;6.97;4.53;;;;;;;;;;5013388;28;20029;-73
2022/04/11 03:23:46;;;;;;;7.82;4.57;;;;;;;;;;5015174;28;20087;-71
2022/04/11 03:26:12;;;;;;;6.82;5.10;;;;;;;;;;5014879;28;20025;-73
2022/04/11 03:28:38;;;;;;;8.38;5.05;;;;;;;;;;5007445;28;20026;-72
2022/04/11 03:31:04;;;;;;;8.90;4.80;;;;;;;;;;5004381;28;20026;-70
2022/04/11 03:33:30;;;;;;;6.10;4.38;;;;;;;;;;5010779;28;20022;-72
2022/04/11 03:35:59;;;;;;;7.70;4.80;;;;;;;;;;5011189;28;20049;-71
2022/04/11 03:38:25;;;;;;;6.40;4.60;;;;;;;;;;5007994;28;20097;-71
2022/04/11 03:40:51;;;;;;;6.57;4.32;;;;;;;;;;5001910;28;20023;-72
2022/04/11 03:43:17;;;;;;;7.28;4.85;;;;;;;;;;5003165;28;20046;-72
2022/04/11 03:45:43;;;;;;;6.88;4.38;;;;;;;;;;5005735;28;20076;-72
2022/04/11 03:48:09;;;;;;;9.75;4.82;;;;;;;;;;5009276;28;20101;-72
2022/04/11 03:50:35;;;;;;;7.38;4.47;;;;;;;;;;5007358;28;20041;-72
2022/04/11 03:53:01;;;;;;;8.98;4.97;;;;;;;;;;5011573;28;20022;-75
2022/04/11 03:55:27;;;;;;;7.22;4.75;;;;;;;;;;5012077;28;20022;-75
2022/04/11 03:57:56;;;;;;;8.25;5.70;;;;;;;;;;4996684;28;20022;-73
2022/04/11 04:00:22;;;;;;;10.57;5.55;;;;;;;;;;5009726;28;20479;-71
2022/04/11 04:02:48;;;;;;;8.40;4.97;;;;;;;;;;5009866;28;20034;-71
2022/04/11 04:05:14;;;;;;;11.73;5.57;;;;;;;;;;5007563;28;20024;-72
2022/04/11 04:07:40;;;;;;;7.35;5.20;;;;;;;;;;5008316;28;20037;-75
2022/04/11 04:10:09;;;;;;;8.90;5.00;;;;;;;;;;5002431;28;20076;-72
2022/04/11 04:12:35;;;;;;;6.00;4.78;;;;;;;;;;5002650;28;20042;-71
2022/04/11 04:15:01;;;;;;;9.65;4.93;;;;;;;;;;5011975;28;20022;-75
2022/04/11 04:17:27;;;;;;;6.03;4.40;;;;;;;;;;5001583;28;20112;-75
2022/04/11 04:19:54;;;;;;;6.18;4.90;;;;;;;;;;5019826;28;20057;-73
2022/04/11 04:22:21;;;;;;;7.40;4.60;;;;;;;;;;5009915;28;20080;-76
2022/04/11 04:24:47;;;;;;;8.38;5.00;;;;;;;;;;5005009;28;20030;-72
2022/04/11 04:27:13;;;;;;;9.25;5.00;;;;;;;;;;5004239;28;20484;-70
2022/04/11 04:29:39;;;;;;;8.40;4.95;;;;;;;;;;5010399;28;20475;-71
2022/04/11 04:32:05;;;;;;;8.45;5.25;;;;;;;;;;5011614;28;20081;-73
2022/04/11 04:34:31;;;;;;;8.52;5.32;;;;;;;;;;5011373;28;20472;-71
2022/04/11 04:37:00;;;;;;;20.75;8.32;;;;;;;;;;5008610;28;20072;-74
2022/04/11 04:39:26;;;;;;;9.05;5.60;;;;;;;;;;5005952;28;20379;-72
2022/04/11 04:41:52;;;;;;;10.05;5.70;;;;;;;;;;5011575;28;20040;-74
2022/04/11 04:44:18;;;;;;;6.82;4.80;;;;;;;;;;5016363;28;20026;-75
2022/04/11 04:46:44;;;;;;;7.22;4.90;;;;;;;;;;5016063;28;20105;-75
2022/04/11 04:49:10;;;;;;;6.90;4.70;;;;;;;;;;5010803;28;20037;-75
2022/04/11 04:51:36;;;;;;;7.22;4.70;;;;;;;;;;4999077;28;20045;-78
2022/04/11 04:54:03;;;;;;;8.50;5.20;;;;;;;;;;5018610;28;20026;-77
2022/04/11 04:56:31;;;;;;;7.15;4.65;;;;;;;;;;5011807;28;20463;-75
2022/04/11 04:58:57;;;;;;;8.90;5.00;;;;;;;;;;5022781;28;20083;-74
2022/04/11 05:01:27;;;;;;;11.55;4.53;;;;;;;;;;5040692;28;20025;-73
2022/04/11 05:03:54;;;;;;;7.88;5.07;;;;;;;;;;5023411;28;20044;-72
2022/04/11 05:06:22;;;;;;;7.55;5.00;;;;;;;;;;5011332;28;20022;-77
2022/04/11 05:08:49;;;;;;;8.98;4.97;;;;;;;;;;5021446;28;20044;-74
2022/04/11 05:11:15;;;;;;;11.75;4.78;;;;;;;;;;5012659;28;20022;-75
2022/04/11 05:13:42;;;;;;;9.35;4.80;;;;;;;;;;5022724;28;20092;-75
2022/04/11 05:16:11;;;;;;;6.75;4.78;;;;;;;;;;5006239;28;20050;-73
2022/04/11 05:18:39;;;;;;;8.23;4.57;;;;;;;;;;5020940;28;20033;-76
2022/04/11 05:21:05;;;;;;;6.55;4.40;;;;;;;;;;5021086;28;20391;-78
2022/04/11 05:23:31;;;;;;;9.93;5.53;;;;;;;;;;5021973;28;20037;-76
2022/04/11 05:25:59;;;;;;;11.23;4.88;;;;;;;;;;5013144;28;20026;-76
2022/04/11 05:28:25;;;;;;;7.43;4.63;;;;;;;;;;5019022;28;20064;-75
2022/04/11 05:30:54;;;;;;;11.23;5.43;;;;;;;;;;5026237;28;20430;-75
2022/04/11 05:33:20;;;;;;;9.20;5.22;;;;;;;;;;5021711;28;20021;-75
2022/04/11 05:35:47;;;;;;;10.55;5.10;;;;;;;;;;5019924;28;20112;-76
2022/04/11 05:38:17;;;;;;;8.32;4.40;;;;;;;;;;5034294;28;20029;-75
2022/04/11 05:40:44;;;;;;;8.10;4.47;;;;;;;;;;5035126;28;20066;-77
2022/04/11 05:43:12;;;;;;;7.22;4.43;;;;;;;;;;5026342;28;20037;-76
2022/04/11 05:45:40;;;;;;;6.55;3.83;;;;;;;;;;5019346;28;20033;-76
2022/04/11 05:48:08;;;;;;;6.95;4.43;;;;;;;;;;5018594;28;20034;-74
2022/04/11 05:50:34;;;;;;;7.55;4.50;;;;;;;;;;5014657;28;20504;-73
2022/04/11 05:53:01;;;;;;;8.88;4.22;;;;;;;;;;5018064;28;20073;-73
2022/04/11 05:55:29;;;;;;;6.20;4.53;;;;;;;;;;5019594;28;20022;-76
2022/04/11 05:57:55;;;;;;;8.18;4.68;;;;;;;;;;5036038;28;20022;-77
2022/04/11 06:00:25;;;;;;;11.10;4.95;;;;;;;;;;5022643;28;20476;-76
2022/04/11 06:02:53;;;;;;;8.15;5.00;;;;;;;;;;5011004;28;20500;-76
2022/04/11 06:05:19;;;;;;;10.40;5.13;;;;;;;;;;5022029;28;20026;-75
2022/04/11 06:07:45;;;;;;;16.48;5.10;;;;;;;;;;5018152;28;20026;-77
2022/04/11 06:10:12;;;;;;;8.50;4.90;;;;;;;;;;5002323;28;20046;-78
2022/04/11 06:12:38;;;;;;;9.15;4.53;;;;;;;;;;5014403;28;20030;-76
2022/04/11 06:15:04;;;;;;;9.77;4.68;;;;;;;;;;5013897;28;20026;-76
2022/04/11 06:17:30;;;;;;;7.97;4.43;;;;;;;;;;5044522;28;20494;-77
2022/04/11 06:23:25;;;;;;;7.35;4.50;;;;;;;;;;5038661;28;20492;-79
2022/04/11 06:25:55;;;;;;;7.35;3.97;;;;;;;;;;5030846;28;20047;-79
2022/04/11 06:28:30;;;;;;;7.55;4.55;;;;;;;;;;5041024;28;20049;-75
2022/04/11 06:30:56;;;;;;;7.45;4.35;;;;;;;;;;5023228;28;20024;-76
2022/04/11 06:33:22;;;;;;;6.93;4.20;;;;;;;;;;5017024;28;20045;-73
2022/04/11 06:35:48;;;;;;;9.52;4.70;;;;;;;;;;4999140;28;20029;-75
2022/04/11 06:38:14;;;;;;;8.98;5.95;;;;;;;;;;5028108;28;20054;-76
2022/04/11 06:40:41;;;;;;;8.43;5.78;;;;;;;;;;5029121;28;20080;-77
2022/04/11 06:43:13;;;;;;;11.23;6.90;;;;;;;;;;5032518;28;20057;-77
2022/04/11 06:45:39;;;;;;;12.43;5.65;;;;;;;;;;5020215;28;20030;-74
2022/04/11 06:48:25;;;;;;;10.55;4.82;;;;;;;;;;5020277;28;20032;-74
2022/04/11 06:50:53;;;;;;;6.07;3.50;;;;;;;;;;5034172;28;20133;-75
2022/04/11 06:53:21;;;;;;;6.43;4.00;;;;;;;;;;5016521;28;20030;-75
2022/04/11 06:55:47;;;;;;;6.38;4.05;;;;;;;;;;5015533;28;20509;-73
2022/04/11 06:58:14;;;;;;;9.85;4.40;;;;;;;;;;5008471;28;20590;-77
2022/04/11 07:00:40;;;;;;;7.15;4.10;;;;;;;;;;5017259;28;20033;-87
2022/04/11 07:03:07;;;;;;;6.75;3.88;;;;;;;;;;5008623;28;20479;-83
2022/04/11 07:05:34;;;;;;;5.93;3.65;;;;;;;;;;5007198;28;20426;-75
2022/04/11 07:08:00;;;;;;;6.15;3.65;;;;;;;;;;5016533;28;20071;-80
2022/04/11 07:10:26;;;;;;;5.13;3.72;;;;;;;;;;5027694;28;20044;-89
2022/04/11 07:12:52;;;;;;;8.45;3.80;;;;;;;;;;5014000;28;20026;-80
2022/04/11 07:15:18;;;;;;;9.40;4.05;;;;;;;;;;5006328;28;20077;-78
2022/04/11 07:17:44;;;;;;;9.93;4.28;;;;;;;;;;5014437;28;20030;-75
2022/04/11 07:20:11;;;;;;;7.38;3.78;;;;;;;;;;5014459;28;20459;-79
2022/04/11 07:22:37;;;;;;;6.32;3.30;;;;;;;;;;5014140;28;20174;-77
2022/04/11 07:25:03;;;;;;;8.38;3.50;;;;;;;;;;5013147;28;20073;-76
2022/04/11 07:27:29;;;;;;;8.38;3.33;;;;;;;;;;5010566;28;20124;-85
2022/04/11 07:29:55;;;;;;;7.32;3.05;;;;;;;;;;5004550;28;20483;-84
2022/04/11 07:32:21;;;;;;;7.43;3.38;;;;;;;;;;5003429;28;20037;-81
2022/04/11 07:34:48;;;;;;;5.47;3.15;;;;;;;;;;5006337;28;20049;-77
2022/04/11 07:37:14;;;;;;;5.40;3.13;;;;;;;;;;5010472;28;20126;-74
2022/04/11 07:39:40;;;;;;;5.72;3.25;;;;;;;;;;5014552;28;20018;-71
2022/04/11 07:42:06;;;;;;;4.93;3.17;;;;;;;;;;5006048;28;20030;-83
2022/04/11 07:44:32;;;;;;;6.97;3.35;;;;;;;;;;5012786;28;20032;-77
2022/04/11 07:46:58;;;;;;;11.00;4.55;;;;;;;;;;5004335;28;20025;-77
2022/04/11 07:49:24;;;;;;;7.50;3.38;;;;;;;;;;5009263;28;20028;-82
2022/04/11 07:51:51;;;;;;;6.30;3.67;;;;;;;;;;5011404;28;20057;-77
2022/04/11 07:54:17;;;;;;;6.78;3.22;;;;;;;;;;5015916;28;20066;-75
2022/04/11 07:56:45;;;;;;;7.55;3.53;;;;;;;;;;5010805;28;20030;-75
2022/04/11 07:59:11;;;;;;;6.43;3.10;;;;;;;;;;5020864;28;20393;-75
2022/04/11 08:01:37;;;;;;;6.00;3.33;;;;;;;;;;5009794;28;20022;-75
2022/04/11 08:04:07;;;;;;;8.65;3.40;;;;;;;;;;5011328;28;20038;-75
2022/04/11 08:06:35;;;;;;;10.07;3.70;;;;;;;;;;5028761;28;20052;-73
2022/04/11 08:09:01;;;;;;;7.47;4.13;;;;;;;;;;5029246;28;20029;-73
2022/04/11 08:11:28;;;;;;;7.32;3.85;;;;;;;;;;5024549;28;20017;-78
2022/04/11 08:13:54;;;;;;;13.55;3.63;;;;;;;;;;5007600;28;20108;-76
2022/04/11 08:16:20;;;;;;;6.65;3.30;;;;;;;;;;5022585;28;21143;-75
2022/04/11 08:18:46;;;;;;;8.45;3.80;;;;;;;;;;5018677;28;20032;-76
2022/04/11 08:21:13;;;;;;;8.35;3.75;;;;;;;;;;5020428;28;20029;-75
2022/04/11 08:23:39;;;;;;;7.50;3.90;;;;;;;;;;5016865;28;20066;-75
2022/04/11 08:26:06;;;;;;;5.05;3.88;;;;;;;;;;5013820;28;20021;-75
2022/04/11 08:28:32;;;;;;;5.78;3.33;;;;;;;;;;5009502;28;20353;-76
2022/04/11 08:31:00;;;;;;;6.18;3.70;;;;;;;;;;5002153;28;20026;-73
2022/04/11 08:33:27;;;;;;;6.22;3.90;;;;;;;;;;5012154;28;20109;-74
2022/04/11 08:35:53;;;;;;;6.55;3.13;;;;;;;;;;5009728;28;20563;-74
2022/04/11 08:38:19;;;;;;;5.15;3.45;;;;;;;;;;5018183;28;20090;-73
2022/04/11 08:40:45;;;;;;;7.50;3.40;;;;;;;;;;5026540;28;20085;-72
2022/04/11 08:43:15;;;;;;;11.57;4.63;;;;;;;;;;5028384;28;20041;-73
2022/04/11 08:45:41;;;;;;;13.10;5.57;;;;;;;;;;5007056;28;20096;-74
2022/04/11 08:48:07;;;;;;;6.75;3.72;;;;;;;;;;5003695;28;20035;-75
2022/04/11 08:50:34;;;;;;;9.50;3.58;;;;;;;;;;5006906;28;20037;-73
2022/04/11 08:53:00;;;;;;;8.40;3.63;;;;;;;;;;5012198;28;20129;-72
2022/04/11 08:55:26;;;;;;;7.05;3.30;;;;;;;;;;5005136;28;20061;-72
2022/04/11 08:57:53;;;;;;;7.93;4.07;;;;;;;;;;5000110;28;20383;-73
2022/04/11 09:00:20;;;;;;;8.85;3.60;;;;;;;;;;5010093;28;20029;-73
2022/04/11 09:02:49;;;;;;;6.93;3.60;;;;;;;;;;5008150;28;20165;-72
2022/04/11 09:05:23;;;;;;;6.90;4.10;;;;;;;;;;5014251;28;20025;-75
2022/04/11 09:07:56;;;;;;;6.10;3.85;;;;;;;;;;5006279;28;20083;-72
2022/04/11 09:10:25;;;;;;;6.53;3.60;;;;;;;;;;5014136;28;20036;-73
2022/04/11 09:12:53;;;;;;;7.60;4.00;;;;;;;;;;5006581;28;20034;-73
2022/04/11 09:15:20;;;;;;;5.32;3.35;;;;;;;;;;5021183;28;20037;-74
2022/04/11 09:17:46;;;;;;;4.68;3.05;;;;;;;;;;5033032;28;20025;-76
2022/04/11 09:20:14;;;;;;;6.88;3.60;;;;;;;;;;5019011;28;20044;-74
2022/04/11 09:22:41;;;;;;;8.80;4.15;;;;;;;;;;5021975;28;20686;-77
2022/04/11 09:25:08;;;;;;;6.43;3.35;;;;;;;;;;5018381;28;20495;-73
2022/04/11 09:27:34;;;;;;;6.50;3.70;;;;;;;;;;5021208;28;20770;-74
2022/04/11 09:30:00;;;;;;;5.72;3.10;;;;;;;;;;5026207;28;20026;-76
2022/04/11 09:32:26;;;;;;;4.22;2.90;;;;;;;;;;5027242;28;20034;-74
2022/04/11 09:34:56;;;;;;;5.93;2.60;;;;;;;;;;5033724;28;20030;-76
2022/04/11 09:37:22;;;;;;;8.45;2.95;;;;;;;;;;5027654;28;20034;-74
2022/04/11 09:39:58;;;;;;;8.00;2.90;;;;;;;;;;5030652;28;20031;-75
2022/04/11 09:42:33;;;;;;;4.68;2.60;;;;;;;;;;5023978;28;20043;-71
2022/04/11 09:45:00;;;;;;;6.75;2.92;;;;;;;;;;5031208;28;20149;-76
2022/04/11 09:47:26;;;;;;;6.05;3.92;;;;;;;;;;5016328;28;20121;-74
2022/04/11 09:49:58;;;;;;;5.88;3.30;;;;;;;;;;5027756;28;20026;-78
2022/04/11 09:52:47;;;;;;;5.20;3.00;;;;;;;;;;4998053;28;20063;-78
2022/04/11 09:55:16;;;;;;;5.68;3.85;;;;;;;;;;4980617;28;20041;-77
2022/04/11 09:57:42;;;;;;;6.05;3.15;;;;;;;;;;4970045;28;20030;-77
2022/04/11 10:00:08;;;;;;;6.30;2.83;;;;;;;;;;4975710;28;20057;-75
2022/04/11 10:02:35;;;;;;;3.90;2.88;;;;;;;;;;4978261;28;20042;-76
2022/04/11 10:05:04;;;;;;;8.48;3.03;;;;;;;;;;4983814;28;20045;-74
2022/04/11 10:07:30;;;;;;;5.50;3.10;;;;;;;;;;4978734;28;20019;-74
2022/04/11 10:09:57;;;;;;;5.20;2.92;;;;;;;;;;4973818;28;20058;-73
2022/04/11 10:12:23;;;;;;;6.28;2.85;;;;;;;;;;4974939;28;20033;-74
2022/04/11 10:14:50;;;;;;;6.43;2.70;;;;;;;;;;4974573;28;20049;-73
2022/04/11 10:17:16;;;;;;;5.82;2.47;;;;;;;;;;4980904;28;20034;-73
2022/04/11 10:19:42;;;;;;;3.50;2.60;;;;;;;;;;4973140;28;20035;-74
2022/04/11 10:22:17;;;;;;;7.88;2.72;;;;;;;;;;4979819;28;20493;-74
2022/04/11 10:25:02;;;;;;;4.95;2.75;;;;;;;;;;4974493;28;20454;-73
2022/04/11 10:27:29;;;;;;;5.70;2.90;;;;;;;;;;4973564;28;20514;-72
2022/04/11 10:29:56;;;;;;;5.10;3.10;;;;;;;;;;4995263;28;20394;-73
2022/04/11 10:32:23;;;;;;;7.07;2.80;;;;;;;;;;5030309;28;20079;-74
2022/04/11 10:35:01;;;;;;;6.95;4.10;;;;;;;;;;5026363;28;20034;-73
2022/04/11 10:37:47;;;;;;;5.53;2.83;;;;;;;;;;5011419;28;20042;-75
2022/04/11 10:40:22;;;;;;;5.20;2.65;;;;;;;;;;5011306;28;20036;-73
2022/04/11 10:43:00;;;;;;;5.03;2.55;;;;;;;;;;5016962;28;20038;-75
2022/04/11 10:45:35;;;;;;;6.63;2.38;;;;;;;;;;5021346;28;20070;-78
2022/04/11 10:48:02;;;;;;;4.22;2.70;;;;;;;;;;5020549;28;20036;-78
2022/04/11 10:50:33;;;;;;;4.90;2.72;;;;;;;;;;5024764;28;20077;-71
2022/04/11 10:53:23;;;;;;;5.22;2.42;;;;;;;;;;5020531;28;20042;-74
2022/04/11 10:55:56;;;;;;;4.05;2.47;;;;;;;;;;5018391;28;20035;-78
2022/04/11 10:58:23;;;;;;;4.10;2.50;;;;;;;;;;5019541;28;20033;-76
2022/04/11 11:00:51;;;;;;;2.90;2.20;;;;;;;;;;5020097;28;20488;-75
2022/04/11 11:03:17;;;;;;;4.78;2.00;;;;;;;;;;5012823;28;20392;-76
2022/04/11 11:05:43;;;;;;;5.15;2.40;;;;;;;;;;5026717;28;20018;-72
2022/04/11 11:08:09;;;;;;;4.72;2.25;;;;;;;;;;5018680;28;20030;-74
2022/04/11 11:10:40;;;;;;;5.47;2.33;;;;;;;;;;5020154;28;20435;-72
2022/04/11 11:13:27;;;;;;;3.53;2.13;;;;;;;;;;5019656;28;20022;-78
2022/04/11 11:15:56;;;;;;;6.05;2.47;;;;;;;;;;5014936;28;20476;-75
2022/04/11 11:18:23;;;;;;;4.60;2.20;;;;;;;;;;5019225;28;20022;-78
2022/04/11 11:20:55;;;;;;;2.80;2.20;;;;;;;;;;5013168;28;20026;-76
2022/04/11 11:23:31;;;;;;;4.22;2.05;;;;;;;;;;5025950;28;20048;-78
2022/04/11 11:26:07;;;;;;;3.45;2.30;;;;;;;;;;5014615;28;20019;-76
2022/04/11 11:28:33;;;;;;;4.90;2.10;;;;;;;;;;5027215;28;20024;-78
2022/04/11 11:30:59;;;;;;;4.13;2.33;;;;;;;;;;5012473;28;20029;-73
2022/04/11 11:33:27;;;;;;;4.07;2.10;;;;;;;;;;5017645;28;20028;-74
2022/04/11 11:35:53;;;;;;;4.68;2.30;;;;;;;;;;5006511;28;20122;-74
2022/04/11 11:38:32;;;;;;;6.05;3.70;;;;;;;;;;5005241;28;20028;-76
2022/04/11 11:41:01;;;;;;;7.00;2.90;;;;;;;;;;5014254;28;20536;-73
2022/04/11 11:43:28;;;;;;;7.03;2.63;;;;;;;;;;5016719;28;20034;-78
2022/04/11 11:46:06;;;;;;;7.35;3.13;;;;;;;;;;5009907;28;20034;-77
2022/04/11 11:48:33;;;;;;;8.38;2.40;;;;;;;;;;5015412;28;20026;-74
2022/04/11 11:51:00;;;;;;;5.85;2.40;;;;;;;;;;5010077;28;20057;-79
2022/04/11 11:53:27;;;;;;;6.88;2.67;;;;;;;;;;5015498;28;20110;-74
2022/04/11 11:55:54;;;;;;;4.80;2.50;;;;;;;;;;5013643;28;20077;-75
2022/04/11 11:58:22;;;;;;;5.75;2.30;;;;;;;;;;5014591;28;20459;-75
2022/04/11 12:00:49;;;;;;;5.72;2.35;;;;;;;;;;5014287;28;20034;-75
2022/04/11 12:06:03;;;;;;;3.85;2.40;;;;;;;;;;5026788;28;20392;-76
2022/04/11 12:08:30;;;;;;;5.40;2.50;;;;;;;;;;5009067;28;20034;-74
2022/04/11 12:11:00;;;;;;;5.05;2.50;;;;;;;;;;5015196;28;20470;-75
2022/04/11 12:13:27;;;;;;;4.60;2.40;;;;;;;;;;5020258;28;20062;-73
2022/04/11 12:15:54;;;;;;;7.38;2.92;;;;;;;;;;5017686;28;20049;-74
2022/04/11 12:18:20;;;;;;;5.32;2.45;;;;;;;;;;5028310;28;20033;-75
2022/04/11 12:20:47;;;;;;;5.00;2.70;;;;;;;;;;5012106;28;20030;-78
2022/04/11 12:23:14;;;;;;;3.70;2.50;;;;;;;;;;5027034;28;20065;-78
2022/04/11 12:25:44;;;;;;;5.55;2.80;;;;;;;;;;5020458;28;20054;-78
2022/04/11 12:28:19;;;;;;;10.07;5.25;;;;;;;;;;5011386;28;20038;-78
2022/04/11 12:30:49;;;;;;;16.70;7.88;;;;;;;;;;5013016;28;20030;-77
2022/04/11 12:33:32;;;;;;;9.90;4.80;;;;;;;;;;5019008;28;20022;-76
2022/04/11 12:36:05;;;;;;;5.93;2.80;;;;;;;;;;5029711;28;20022;-75
2022/04/11 12:38:48;;;;;;;7.13;2.80;;;;;;;;;;5009296;28;20033;-72
2022/04/11 12:41:35;;;;;;;4.93;2.92;;;;;;;;;;5017281;28;20034;-77
2022/04/11 12:44:02;;;;;;;4.00;2.63;;;;;;;;;;5006787;28;20143;-73
2022/04/11 12:46:30;;;;;;;5.15;2.33;;;;;;;;;;5016845;28;20025;-76
2022/04/11 12:49:01;;;;;;;6.10;3.22;;;;;;;;;;5020085;28;20148;-74
2022/04/11 12:51:28;;;;;;;6.30;2.88;;;;;;;;;;5014081;28;20133;-78
2022/04/11 12:54:04;;;;;;;5.90;3.08;;;;;;;;;;5020691;28;20036;-76
2022/04/11 12:56:51;;;;;;;8.18;3.08;;;;;;;;;;5027767;28;20029;-76
2022/04/11 12:59:30;;;;;;;6.60;3.90;;;;;;;;;;5022271;28;20018;-76
2022/04/11 13:02:05;;;;;;;8.95;3.60;;;;;;;;;;5011168;28;20026;-75
2022/04/11 13:04:31;;;;;;;5.28;3.80;;;;;;;;;;5017164;28;20037;-76
2022/04/11 13:06:57;;;;;;;10.65;7.05;;;;;;;;;;5006844;28;20028;-75
2022/04/11 13:09:24;;;;;;;5.68;3.25;;;;;;;;;;5011351;28;20468;-73
2022/04/11 13:11:50;;;;;;;16.15;8.18;;;;;;;;;;4996730;28;20030;-75
2022/04/11 13:14:17;;;;;;;10.63;5.85;;;;;;;;;;5019744;28;20036;-76
2022/04/11 13:19:28;;;;;;;6.57;3.40;;;;;;;;;;5017984;28;20419;-75
2022/04/11 13:21:54;;;;;;;5.22;2.88;;;;;;;;;;5024769;28;20034;-72
2022/04/11 13:24:20;;;;;;;6.25;3.80;;;;;;;;;;5021853;28;20061;-71
2022/04/11 13:26:48;;;;;;;3.33;2.63;;;;;;;;;;5014861;28;20026;-76
2022/04/11 13:29:14;;;;;;;5.80;3.53;;;;;;;;;;5020772;28;20116;-71
2022/04/11 13:31:40;;;;;;;5.90;3.60;;;;;;;;;;5028450;28;20052;-76
2022/04/11 13:34:06;;;;;;;4.93;2.78;;;;;;;;;;5014249;28;20027;-74
2022/04/11 13:36:32;;;;;;;6.00;2.95;;;;;;;;;;5009269;28;20030;-73
2022/04/11 13:38:59;;;;;;;6.10;2.63;;;;;;;;;;5020071;28;20029;-75
2022/04/11 13:41:25;;;;;;;6.07;2.75;;;;;;;;;;5019625;28;20052;-76
2022/04/11 13:43:51;;;;;;;4.40;2.78;;;;;;;;;;5012341;28;20034;-75
2022/04/11 13:46:18;;;;;;;7.18;2.30;;;;;;;;;;5012567;28;20030;-77
2022/04/11 13:48:44;;;;;;;4.82;2.25;;;;;;;;;;5012104;28;20030;-77
2022/04/11 13:51:12;;;;;;;4.40;2.90;;;;;;;;;;5012172;28;20072;-75
2022/04/11 13:53:38;;;;;;;5.53;2.70;;;;;;;;;;5010464;28;20526;-77
2022/04/11 13:56:07;;;;;;;6.72;2.80;;;;;;;;;;5006320;28;20041;-77
2022/04/11 13:58:33;;;;;;;3.35;2.40;;;;;;;;;;5028324;28;20022;-78
2022/04/11 14:00:59;;;;;;;8.57;2.85;;;;;;;;;;5027514;28;20022;-77
2022/04/11 14:03:25;;;;;;;4.40;2.50;;;;;;;;;;5029237;28;20034;-76
2022/04/11 14:05:51;;;;;;;5.38;2.60;;;;;;;;;;5015482;28;20029;-73
2022/04/11 14:08:21;;;;;;;6.05;2.78;;;;;;;;;;5023980;28;20033;-76
2022/04/11 14:10:49;;;;;;;12.32;2.90;;;;;;;;;;5025399;28;20041;-75
2022/04/11 14:13:15;;;;;;;4.55;2.72;;;;;;;;;;5023807;28;20491;-74
2022/04/11 14:15:41;;;;;;;6.53;2.90;;;;;;;;;;5013962;28;20111;-75
2022/04/11 14:18:07;;;;;;;5.50;2.72;;;;;;;;;;5023268;28;20030;-77
2022/04/11 14:20:34;;;;;;;4.75;2.75;;;;;;;;;;5018936;28;20041;-75
2022/04/11 14:23:00;;;;;;;3.40;2.42;;;;;;;;;;5013418;28;20045;-76
2022/04/11 14:25:27;;;;;;;6.32;2.80;;;;;;;;;;5009269;28;20113;-74
2022/04/11 14:27:54;;;;;;;4.55;2.72;;;;;;;;;;5015322;28;20034;-77
2022/04/11 14:30:20;;;;;;;6.78;4.65;;;;;;;;;;5024443;28;20414;-77
2022/04/11 14:32:46;;;;;;;6.35;2.90;;;;;;;;;;5014332;28;20045;-73
2022/04/11 14:35:13;;;;;;;16.50;8.02;;;;;;;;;;5013178;28;20030;-74
2022/04/11 14:37:45;;;;;;;7.50;5.07;;;;;;;;;;5000206;28;20052;-75
2022/04/11 14:40:11;;;;;;;5.45;3.00;;;;;;;;;;5005331;28;20041;-72
2022/04/11 14:42:37;;;;;;;6.50;3.60;;;;;;;;;;5012077;28;20040;-72
2022/04/11 14:45:04;;;;;;;5.10;2.90;;;;;;;;;;5005477;28;20037;-71
2022/04/11 14:47:30;;;;;;;6.43;4.18;;;;;;;;;;5012334;28;20091;-72
2022/04/11 14:49:56;;;;;;;5.53;3.00;;;;;;;;;;5011318;28;20026;-73
2022/04/11 14:52:23;;;;;;;6.13;2.80;;;;;;;;;;5017687;28;20034;-77